KSJT/SJT METAR and TAF weather

Enter ICAO airport designator
Station Type Date Time Source
KSJT METAR 2020/07/06 19:51 UTC NOAA

KSJT 061951Z VRB06KT 10SM CLR 32/21 A2996 RMK AO2 SLP118 T03170206


Station Type Date Time Source
KSJT Decoded METAR 2020/07/06 19:51 UTC NOAA

MATHIS FIELD, TX, United States (KSJT) 31-21N 100-30W 581M
Jul 06, 2020 - 03:51 PM EDT / 2020.07.06 1951 UTC
Wind: Variable at 7 MPH (6 KT):0
Visibility: 10 mile(s):0
Sky conditions: clear
Temperature: 89.1 F (31.7 C)
Dew Point: 69.1 F (20.6 C)
Relative Humidity: 51%
Pressure (altimeter): 29.96 in. Hg (1014 hPa)
ob: KSJT 061951Z VRB06KT 10SM CLR 32/21 A2996 RMK AO2 SLP118 T03170206
cycle: 20

Station Type Date Time Source
KSJT TAF 2020/07/06 18:39 UTC NOAA

TAF KSJT 061736Z 0618/0718 09005KT P6SM SCT060 BKN150
FM062100 09004KT P6SM VCTS BKN060CB
FM070300 11005KT P6SM SCT060 BKN150

Example: see airport list